ZHCCZSHC

Guest
Details From ZHCC - Zhengzhou Xinzheng
To ZSHC - XIAOSHAN
Flight Number -
Tags decoded
Created
Modified
Stats Distance 440 nm / 815 km
Max Altitude 0 ft / 0 m
Waypoints 5
Social Downloads 0
Likes 0
Share VATSIM

Download

Looking for another format? Having issues loading an existing format? Contact us
Advertisement - Login to hide

Notes

Requested: ZHCC KAMDA W128 FYG B208 HFE R343 GS A470 RANGA ZSHC Unmatched points: KAMDA W128 FYG B208 A470 RANGA

Route

ZHCC HFE R343 GS ZSHC

ID Type Via Altitude Latitude Longitude Leg Dist Tot Dist Heading (true) Name
O ZHCC APT - 0 ft / 0 m 34.51934˚ 113.84114˚ - 0 nm - Zhengzhou Xinzheng
HFE VOR - 0 ft / 0 m 31.78000˚ 117.30167˚ 239 nm 239 nm 132° / 134° HEFEI VOR-DME
MADUK FIX R343 (AWY-HI) 0 ft / 0 m 31.71833˚ 118.60500˚ 66 nm 306 nm 93° / 94° -
GS NDB R343 (AWY-LO) 0 ft / 0 m 31.63667˚ 119.04333˚ 22 nm 329 nm 102° / 102° LISHUI NDB
O ZSHC APT - 0 ft / 0 m 30.22950˚ 120.43445˚ 110 nm 439 nm 139° / 140° XIAOSHAN

Altitude Profile

Advertisement - Login to hide

Weather


0- 5 10 15 20 25 30 35+ Temperature / ° C

Clouds and Precipitation
Forecast for 2017-12-13 00:00 UTC. Updated 18 minutes ago

Ground ~20,000 ft ~40,000 ft Winds

ZHCC

Details ICAO ZHCC (CGO)
Name Zhengzhou Xinzheng
Region China
Timezone Asia/Shanghai (UTC+8.0)
Stats Elevation 495 ft / 151 m (AMSL)
Location 34.519335° 113.841137°
Runways 1
Magnetic Variation 5.000° W

METAR

ZHCC 122300Z 03005MPS CAVOK M00/M12 Q1031 NOSIG

Decode

TAF

Not found

Departure Runways

ID Width Length Bearing (true) Bearing (mag) Surface Threshold Offset Overrun Length
12 131 ft / 40 m 11,139 ft / 3,395 m 112.44° 117.44° Concrete 0 ft / 0 m 197 ft / 60 m
30 131 ft / 40 m 11,139 ft / 3,395 m 292.46° 297.46° Concrete 0 ft / 0 m 197 ft / 60 m

ZSHC

Details ICAO ZSHC (HGH)
Name XIAOSHAN
Region China
Timezone Asia/Shanghai (UTC+8.0)
Stats Elevation 23 ft / 7 m (AMSL)
Location 30.229504° 120.434453°
Runways 1
Magnetic Variation 5.532° W

METAR

ZSHC 122330Z 07003MPS CAVOK 06/03 Q1029 NOSIG

Decode

TAF

Not found

Destination Runways

ID Width Length Bearing (true) Bearing (mag) Surface Threshold Offset Overrun Length
07 148 ft / 45 m 11,803 ft / 3,598 m 62.82° 68.35° Concrete 0 ft / 0 m 200 ft / 61 m
25 148 ft / 45 m 11,803 ft / 3,598 m 242.84° 248.37° Concrete 0 ft / 0 m 200 ft / 61 m

Approach Navaids

Runway Type Ident Frequency Range Bearing (true) Bearing (mag) Slope Elevation
07 Localiser IXX 109.90 MHz 18 nm / 33 km 61.92° 67.45° - 23 ft / 7 m (AMSL)
07 Glidescope IXX 109.90 MHz 10 nm / 19 km 62.83° 68.36° 3.00° 23 ft / 7 m (AMSL)
25 Localiser IDD 108.50 MHz 18 nm / 33 km 242.20° 247.73° - 23 ft / 7 m (AMSL)
25 Glidescope IDD 108.50 MHz 10 nm / 19 km 242.83° 248.36° 3.00° 23 ft / 7 m (AMSL)

Popular Alternatives